Time;durP1;ratioP1;P1;durP2;ratioP2;P2;SDS_P1;SDS_P2;PMS_P1;PMS_P2;Temp;Humidity;BMP_temperature;BMP_pressure;BME280_temperature;BME280_humidity;BME280_pressure;Samples;Min_cycle;Max_cycle;Signal;HPM_P1;HPM_P2
2022/12/11 00:01:17;;;;;;;;;;;;;;;29.75;27.47;99295.25;5018050;28;1143;-24
2022/12/11 00:03:42;;;;;;;;;;;;;;;29.36;27.79;99279.44;5017595;28;1168;-24
2022/12/11 00:06:09;;;;;;;;;;;;;;;29.40;27.97;99276.00;5017418;28;1168;-24
2022/12/11 00:08:35;;;;;;;;;;;;;;;29.33;28.04;99278.84;5017166;28;1160;-27
2022/12/11 00:11:00;;;;;;;;;;;;;;;29.13;28.47;99270.22;5017610;28;1948;-26
2022/12/11 00:13:25;;;;;;;;;;;;;;;28.66;29.28;99279.81;5017561;28;1315;-24
2022/12/11 00:15:51;;;;;;;;;;;;;;;29.00;28.38;99269.34;5017079;28;1174;-24
2022/12/11 00:18:16;;;;;;;;;;;;;;;29.13;28.34;99271.03;5017621;28;1096;-25
2022/12/11 00:20:41;;;;;;;;;;;;;;;28.96;28.17;99268.16;5017611;28;1195;-24
2022/12/11 00:23:06;;;;;;;;;;;;;;;28.80;28.75;99262.34;5017193;28;1179;-23
2022/12/11 00:25:32;;;;;;;;;;;;;;;29.15;28.47;99263.50;5017156;28;1151;-29
2022/12/11 00:27:57;;;;;;;;;;;;;;;29.02;28.60;99261.00;5004424;28;2303;-25
2022/12/11 00:30:22;;;;;;;;;;;;;;;28.57;29.45;99254.97;5017186;28;1129;-23
2022/12/11 00:32:50;;;;;;;;;;;;;;;28.94;28.76;99256.72;5016478;28;1990;-26
2022/12/11 00:35:15;;;;;;;;;;;;;;;29.03;28.36;99246.44;5017495;28;1135;-25
2022/12/11 00:37:40;;;;;;;;;;;;;;;28.72;28.99;99228.31;5017146;28;1179;-24
2022/12/11 00:40:06;;;;;;;;;;;;;;;28.78;28.22;99242.78;5017219;28;1226;-23
2022/12/11 00:42:31;;;;;;;;;;;;;;;28.92;28.65;99238.00;5017431;28;1167;-24
2022/12/11 00:44:56;;;;;;;;;;;;;;;28.61;29.03;99223.72;5016931;28;1113;-26
2022/12/11 00:47:22;;;;;;;;;;;;;;;28.63;28.83;99226.97;5009735;28;1124;-24
2022/12/11 00:49:47;;;;;;;;;;;;;;;28.81;28.75;99212.56;5009749;28;1088;-24
2022/12/11 00:52:13;;;;;;;;;;;;;;;28.72;28.87;99203.97;5016184;28;1902;-24
2022/12/11 00:54:38;;;;;;;;;;;;;;;28.69;28.64;99193.63;5016787;28;1127;-24
2022/12/11 00:57:03;;;;;;;;;;;;;;;29.01;28.42;99188.97;5007455;28;1839;-24
2022/12/11 00:59:28;;;;;;;;;;;;;;;28.77;28.93;99183.50;5006178;28;1129;-24
2022/12/11 01:01:54;;;;;;;;;;;;;;;28.73;28.64;99177.72;5016393;28;1121;-26
2022/12/11 01:04:19;;;;;;;;;;;;;;;29.00;28.42;99184.59;5009654;28;1132;-28
2022/12/11 01:06:44;;;;;;;;;;;;;;;28.68;28.94;99183.00;5009794;28;1093;-25
2022/12/11 01:11:53;;;;;;;;;;;;;;;28.70;29.01;99189.84;5016246;28;1965;-25
2022/12/11 01:14:19;;;;;;;;;;;;;;;28.46;29.35;99175.44;5016453;28;1179;-28
2022/12/11 01:16:44;;;;;;;;;;;;;;;28.71;28.74;99174.44;5016304;28;1132;-24
2022/12/11 01:19:09;;;;;;;;;;;;;;;28.81;28.72;99171.16;5016401;28;1200;-24
2022/12/11 01:21:34;;;;;;;;;;;;;;;28.51;29.52;99162.03;5012867;28;1171;-27
2022/12/11 01:24:00;;;;;;;;;;;;;;;28.68;28.69;99164.06;5011237;28;1097;-25
2022/12/11 01:26:25;;;;;;;;;;;;;;;28.78;28.89;99169.72;5016295;28;1750;-24
2022/12/11 01:28:50;;;;;;;;;;;;;;;28.38;29.49;99186.59;5016467;28;1211;-23
2022/12/11 01:31:16;;;;;;;;;;;;;;;28.56;28.65;99185.69;5016288;28;1906;-26
2022/12/11 01:33:41;;;;;;;;;;;;;;;28.54;29.40;99187.81;5015900;28;1148;-24
2022/12/11 01:36:07;;;;;;;;;;;;;;;28.29;29.59;99183.34;5002382;28;1179;-24
2022/12/11 01:38:33;;;;;;;;;;;;;;;28.58;29.02;99189.81;5016403;28;1200;-24
2022/12/11 01:40:58;;;;;;;;;;;;;;;28.91;28.70;99184.91;5016077;28;1121;-26
2022/12/11 01:43:23;;;;;;;;;;;;;;;28.33;29.67;99179.13;5016545;28;1112;-24
2022/12/11 01:45:49;;;;;;;;;;;;;;;28.55;29.16;99170.50;5015769;28;1112;-23
2022/12/11 01:48:18;;;;;;;;;;;;;;;28.70;29.16;99156.53;5002036;28;1171;-26
2022/12/11 01:50:48;;;;;;;;;;;;;;;28.22;30.06;99145.56;5016070;28;1495;-23
2022/12/11 01:53:15;;;;;;;;;;;;;;;28.61;28.88;99153.38;5015706;28;1089;-24
2022/12/11 01:55:40;;;;;;;;;;;;;;;28.92;28.53;99148.69;5014611;28;1287;-23
2022/12/11 01:58:05;;;;;;;;;;;;;;;28.21;29.94;99139.34;5014582;28;2662;-23
2022/12/11 02:00:30;;;;;;;;;;;;;;;28.43;29.54;99141.56;5003024;28;1159;-25
2022/12/11 02:02:56;;;;;;;;;;;;;;;28.68;29.00;99140.53;5020136;28;1172;-25
2022/12/11 02:05:21;;;;;;;;;;;;;;;28.13;30.00;99131.53;5019829;28;1144;-26
2022/12/11 02:07:47;;;;;;;;;;;;;;;28.48;29.54;99127.31;5020213;28;1129;-25
2022/12/11 02:10:12;;;;;;;;;;;;;;;28.60;29.15;99119.25;5012882;28;1089;-23
2022/12/11 02:12:40;;;;;;;;;;;;;;;28.05;30.08;99116.47;5019050;28;1976;-23
2022/12/11 02:15:15;;;;;;;;;;;;;;;28.51;29.16;99104.41;5018387;28;1141;-26
2022/12/11 02:17:40;;;;;;;;;;;;;;;28.62;29.06;99095.50;5019267;28;1179;-23
2022/12/11 02:20:35;;;;;;;;;;;;;;;28.33;29.36;99081.78;5019698;28;1160;-25
2022/12/11 02:23:12;;;;;;;;;;;;;;;28.63;29.32;99074.69;4995760;28;1230;-25
2022/12/11 02:25:44;;;;;;;;;;;;;;;28.26;29.81;99070.25;5012735;28;1126;-26
2022/12/11 02:28:27;;;;;;;;;;;;;;;28.29;29.36;99065.19;5006930;28;1291;-26
2022/12/11 02:30:54;;;;;;;;;;;;;;;28.46;28.95;99061.84;5018287;28;1910;-23
2022/12/11 02:33:20;;;;;;;;;;;;;;;28.26;29.92;99051.31;5018599;28;1200;-25
2022/12/11 02:35:46;;;;;;;;;;;;;;;28.33;29.28;99046.63;5014878;28;884;-24
2022/12/11 02:38:12;;;;;;;;;;;;;;;28.64;29.08;99057.38;5017326;28;1272;-24
2022/12/11 02:40:38;;;;;;;;;;;;;;;28.28;29.51;99050.00;5018055;28;1257;-24
2022/12/11 02:43:03;;;;;;;;;;;;;;;28.32;29.38;99047.66;5019189;28;1171;-24
2022/12/11 02:45:28;;;;;;;;;;;;;;;28.73;28.70;99064.91;5018099;28;1129;-25
2022/12/11 02:47:54;;;;;;;;;;;;;;;28.40;29.38;99060.03;5015522;28;911;-25
2022/12/11 02:50:20;;;;;;;;;;;;;;;28.26;29.49;99046.72;5018910;28;1207;-24
2022/12/11 02:52:45;;;;;;;;;;;;;;;28.35;29.59;99022.91;5018000;28;1898;-24
2022/12/11 02:55:11;;;;;;;;;;;;;;;28.26;29.89;99046.72;5018729;28;1294;-24
2022/12/11 02:57:49;;;;;;;;;;;;;;;28.31;29.38;99044.13;5017375;28;2541;-24
2022/12/11 03:00:15;;;;;;;;;;;;;;;28.63;29.43;99021.38;5018629;28;962;-23
2022/12/11 03:02:41;;;;;;;;;;;;;;;28.28;29.71;99038.41;5018920;28;1116;-24
2022/12/11 03:05:06;;;;;;;;;;;;;;;28.40;29.13;99035.72;5017824;28;1149;-25
2022/12/11 03:07:33;;;;;;;;;;;;;;;28.69;28.93;99027.75;5018487;28;1103;-24
2022/12/11 03:09:58;;;;;;;;;;;;;;;28.22;29.96;99023.91;5018539;28;1068;-24
2022/12/11 03:12:26;;;;;;;;;;;;;;;28.42;29.17;99012.81;5016852;28;1980;-24
2022/12/11 03:14:51;;;;;;;;;;;;;;;28.75;28.97;99007.00;5018560;28;1183;-24
2022/12/11 03:17:16;;;;;;;;;;;;;;;28.20;30.09;99020.59;5016970;28;1141;-25
2022/12/11 03:19:45;;;;;;;;;;;;;;;28.39;29.53;99002.47;5018364;28;1486;-24
2022/12/11 03:22:10;;;;;;;;;;;;;;;28.79;29.00;99000.09;5018182;28;1179;-24
2022/12/11 03:24:54;;;;;;;;;;;;;;;28.11;30.16;98991.22;5004669;28;1026;-25
2022/12/11 03:27:26;;;;;;;;;;;;;;;28.44;29.35;98994.47;5005075;28;1841;-24
2022/12/11 03:30:15;;;;;;;;;;;;;;;28.62;29.20;99008.91;5017167;28;1215;-25
2022/12/11 03:32:47;;;;;;;;;;;;;;;28.20;29.72;99005.22;5012368;28;1969;-24
2022/12/11 03:35:31;;;;;;;;;;;;;;;28.64;29.26;99014.09;5017948;28;1089;-24
2022/12/11 03:37:57;;;;;;;;;;;;;;;28.42;29.62;99012.81;5018236;28;1175;-23
2022/12/11 03:40:22;;;;;;;;;;;;;;;28.30;29.78;99014.63;5018563;28;1144;-25
2022/12/11 03:42:49;;;;;;;;;;;;;;;28.56;29.34;99005.25;5018012;28;1093;-24
2022/12/11 03:45:14;;;;;;;;;;;;;;;28.52;29.00;99008.69;5017956;28;1180;-25
2022/12/11 03:47:39;;;;;;;;;;;;;;;28.01;30.24;99001.75;5017360;28;1104;-25
2022/12/11 03:50:05;;;;;;;;;;;;;;;28.63;29.07;99009.75;5018217;28;1113;-24
2022/12/11 03:52:31;;;;;;;;;;;;;;;28.54;29.29;99002.00;5016217;28;1910;-23
2022/12/11 03:54:58;;;;;;;;;;;;;;;28.31;29.32;99000.88;5016975;28;1168;-23
2022/12/11 03:57:24;;;;;;;;;;;;;;;28.48;29.28;98990.22;5009724;28;2605;-26
2022/12/11 03:59:50;;;;;;;;;;;;;;;28.46;29.14;98975.28;5015476;28;913;-24
2022/12/11 04:02:15;;;;;;;;;;;;;;;28.03;30.24;98977.22;5016483;28;1101;-24
2022/12/11 04:04:40;;;;;;;;;;;;;;;28.34;29.43;98969.88;5017547;28;1195;-24
2022/12/11 04:07:06;;;;;;;;;;;;;;;28.48;29.39;98933.41;5017867;28;1179;-23
2022/12/11 04:09:31;;;;;;;;;;;;;;;28.05;30.21;98937.25;5017639;28;1018;-24
2022/12/11 04:11:56;;;;;;;;;;;;;;;28.26;29.50;98914.22;5004950;28;1895;-23
2022/12/11 04:17:05;;;;;;;;;;;;;;;28.24;29.94;98903.66;5008102;28;1261;-25
2022/12/11 04:24:59;;;;;;;;;;;;;;;28.27;29.88;98915.88;5016289;28;974;-23
2022/12/11 04:30:09;;;;;;;;;;;;;;;28.32;28.98;98934.94;5016917;28;1116;-23
2022/12/11 04:32:34;;;;;;;;;;;;;;;28.29;29.93;98924.59;5016955;28;1969;-27
2022/12/11 04:34:59;;;;;;;;;;;;;;;28.50;28.74;98933.19;5016705;28;1167;-24
2022/12/11 04:37:25;;;;;;;;;;;;;;;28.37;29.04;98931.56;5016907;28;1223;-29
2022/12/11 04:39:51;;;;;;;;;;;;;;;28.55;29.26;98916.25;5017224;28;1100;-28
2022/12/11 04:42:16;;;;;;;;;;;;;;;28.22;30.14;98902.25;5017280;28;1157;-24
2022/12/11 04:44:41;;;;;;;;;;;;;;;27.96;30.55;98872.75;5017100;28;1179;-24
2022/12/11 04:47:07;;;;;;;;;;;;;;;27.99;30.44;98896.59;5016733;28;1194;-26
2022/12/11 04:49:32;;;;;;;;;;;;;;;27.54;31.48;98892.53;5015785;28;1164;-23
2022/12/11 04:51:57;;;;;;;;;;;;;;;27.29;31.84;98896.22;5016163;28;1890;-23
2022/12/11 04:54:22;;;;;;;;;;;;;;;27.28;31.93;98916.16;5003071;28;1309;-22
2022/12/11 04:56:48;;;;;;;;;;;;;;;27.44;31.34;98903.88;5012396;28;2379;-23
2022/12/11 04:59:13;;;;;;;;;;;;;;;27.37;31.30;98913.94;5015406;28;1096;-22
2022/12/11 05:01:39;;;;;;;;;;;;;;;27.16;32.26;98913.38;5015328;28;1033;-25
2022/12/11 05:04:04;;;;;;;;;;;;;;;27.13;32.04;98905.75;5015499;28;1104;-22
2022/12/11 05:06:29;;;;;;;;;;;;;;;27.08;32.03;98884.03;5016585;28;1116;-23
2022/12/11 05:08:54;;;;;;;;;;;;;;;27.04;32.44;98899.03;5016562;28;1101;-23
2022/12/11 05:11:20;;;;;;;;;;;;;;;27.06;32.01;98883.44;5016319;28;1897;-23
2022/12/11 05:13:45;;;;;;;;;;;;;;;26.95;32.31;98893.91;5016595;28;1282;-24
2022/12/11 05:16:13;;;;;;;;;;;;;;;26.76;33.16;98891.22;5016062;28;1501;-27
2022/12/11 05:18:38;;;;;;;;;;;;;;;26.84;32.73;98895.50;5016339;28;1188;-26
2022/12/11 05:21:04;;;;;;;;;;;;;;;26.49;33.60;98879.94;5016558;28;1206;-28
2022/12/11 05:23:30;;;;;;;;;;;;;;;26.68;33.73;98906.88;5016111;28;1088;-26
2022/12/11 05:25:56;;;;;;;;;;;;;;;26.91;33.58;98906.19;5014855;28;1842;-26
2022/12/11 05:28:21;;;;;;;;;;;;;;;26.58;33.59;98904.72;5009529;28;1122;-27
2022/12/11 05:30:46;;;;;;;;;;;;;;;26.78;33.41;98904.50;5016672;28;1167;-24
2022/12/11 05:33:12;;;;;;;;;;;;;;;27.01;33.13;98911.91;5016019;28;1970;-25
2022/12/11 05:35:37;;;;;;;;;;;;;;;27.19;31.79;98918.34;5013942;28;1124;-24
2022/12/11 05:38:02;;;;;;;;;;;;;;;27.76;31.38;98900.09;5016285;28;1144;-25
2022/12/11 05:40:28;;;;;;;;;;;;;;;27.51;30.42;98896.50;5016534;28;1109;-24
2022/12/11 05:42:53;;;;;;;;;;;;;;;27.45;31.37;98888.50;5016241;28;1160;-24
2022/12/11 05:45:18;;;;;;;;;;;;;;;27.17;32.08;98903.44;5016384;28;1120;-25
2022/12/11 05:47:44;;;;;;;;;;;;;;;27.34;31.03;98904.41;5016189;28;1175;-25
2022/12/11 05:50:09;;;;;;;;;;;;;;;27.51;31.43;98907.28;5016069;28;1084;-24
2022/12/11 05:52:35;;;;;;;;;;;;;;;27.44;31.90;98912.00;5016186;28;1902;-25
2022/12/11 05:55:00;;;;;;;;;;;;;;;27.45;31.51;98921.72;5015830;28;1128;-23
2022/12/11 05:57:25;;;;;;;;;;;;;;;27.39;30.65;98920.75;5008595;28;2628;-23
2022/12/11 05:59:50;;;;;;;;;;;;;;;27.56;31.48;98930.09;5015750;28;1148;-24
2022/12/11 06:02:16;;;;;;;;;;;;;;;27.71;30.23;98937.81;5015689;28;1124;-25
2022/12/11 06:04:41;;;;;;;;;;;;;;;27.52;30.43;98935.13;5016141;28;1215;-24
2022/12/11 06:07:06;;;;;;;;;;;;;;;27.43;31.10;98933.78;5016213;28;1120;-23
2022/12/11 06:09:32;;;;;;;;;;;;;;;27.32;30.95;98954.31;5016134;28;1013;-25
2022/12/11 06:11:57;;;;;;;;;;;;;;;27.64;30.72;98959.50;5015380;28;1902;-24
2022/12/11 06:14:22;;;;;;;;;;;;;;;27.32;31.04;98948.91;5013347;28;1128;-25
2022/12/11 06:16:48;;;;;;;;;;;;;;;27.09;31.62;98947.75;5004278;28;1176;-25
2022/12/11 06:19:14;;;;;;;;;;;;;;;27.29;30.51;98955.59;5015575;28;1156;-25
2022/12/11 06:21:39;;;;;;;;;;;;;;;27.24;31.47;98950.88;5015996;28;1172;-25
2022/12/11 06:24:05;;;;;;;;;;;;;;;27.56;30.66;98943.59;5015275;28;1160;-26
2022/12/11 06:26:30;;;;;;;;;;;;;;;27.46;31.33;98953.06;5015524;28;2414;-24
2022/12/11 06:28:56;;;;;;;;;;;;;;;27.50;31.60;98942.63;5015495;28;1171;-25
2022/12/11 06:31:21;;;;;;;;;;;;;;;27.81;31.11;98945.34;5015644;28;1910;-26
2022/12/11 06:33:46;;;;;;;;;;;;;;;27.87;31.47;98947.94;5017219;28;1121;-27
2022/12/11 06:36:13;;;;;;;;;;;;;;;27.89;30.88;98942.31;5021185;28;1410;-24
2022/12/11 06:38:38;;;;;;;;;;;;;;;27.61;31.65;98941.03;5002353;28;1136;-24
2022/12/11 06:41:04;;;;;;;;;;;;;;;27.72;30.95;98947.56;5015790;28;1135;-28
2022/12/11 06:43:30;;;;;;;;;;;;;;;27.83;31.71;98956.72;5015432;28;1136;-25
2022/12/11 06:45:55;;;;;;;;;;;;;;;27.57;31.86;98950.66;5015395;28;1148;-27
2022/12/11 06:48:20;;;;;;;;;;;;;;;27.28;32.38;98955.84;5017471;28;1347;-27
2022/12/11 06:50:46;;;;;;;;;;;;;;;27.33;31.48;98967.56;5019432;28;1155;-27
2022/12/11 06:53:11;;;;;;;;;;;;;;;27.42;31.84;98978.06;5018634;28;1902;-24
2022/12/11 06:55:36;;;;;;;;;;;;;;;27.56;31.30;98978.72;5019068;28;1178;-25
2022/12/11 06:58:02;;;;;;;;;;;;;;;27.26;32.08;98973.06;5011625;28;2528;-25
2022/12/11 07:00:27;;;;;;;;;;;;;;;27.43;30.92;98972.44;5018662;28;1140;-26
2022/12/11 07:02:52;;;;;;;;;;;;;;;27.66;32.99;98976.25;5018922;28;1198;-26
2022/12/11 07:05:18;;;;;;;;;;;;;;;27.74;33.28;98980.56;5018166;28;1211;-24
2022/12/11 07:07:43;;;;;;;;;;;;;;;27.50;31.55;98986.69;5018616;28;1168;-23
2022/12/11 07:10:08;;;;;;;;;;;;;;;27.49;33.08;98992.31;5008004;28;1108;-26
2022/12/11 07:12:34;;;;;;;;;;;;;;;27.32;33.53;98989.41;5014801;28;1972;-23
2022/12/11 07:14:59;;;;;;;;;;;;;;;27.39;31.63;98990.16;5010207;28;1015;-25
2022/12/11 07:17:24;;;;;;;;;;;;;;;27.53;33.71;98992.69;5012753;28;1214;-26
2022/12/11 07:19:50;;;;;;;;;;;;;;;27.45;34.30;98994.63;5018579;28;1140;-26
2022/12/11 07:22:15;;;;;;;;;;;;;;;27.39;34.29;98990.16;5017011;28;1124;-26
2022/12/11 07:24:40;;;;;;;;;;;;;;;27.47;31.49;99006.03;5018401;28;1155;-24
2022/12/11 07:27:06;;;;;;;;;;;;;;;27.48;32.14;99001.44;5016801;28;2619;-25
2022/12/11 07:29:31;;;;;;;;;;;;;;;27.83;32.19;98989.97;5018182;28;1041;-25
2022/12/11 07:31:56;;;;;;;;;;;;;;;27.60;33.82;98978.03;5017985;28;1906;-26
2022/12/11 07:34:22;;;;;;;;;;;;;;;27.50;33.50;98983.16;5018413;28;1112;-24
2022/12/11 07:36:47;;;;;;;;;;;;;;;27.33;33.44;98991.03;5018001;28;1156;-23
2022/12/11 07:39:12;;;;;;;;;;;;;;;27.43;33.24;98988.63;5018241;28;1108;-25
2022/12/11 07:41:38;;;;;;;;;;;;;;;27.74;32.25;98981.38;5018302;28;1239;-25
2022/12/11 07:44:03;;;;;;;;;;;;;;;27.65;32.76;98982.72;5017974;28;1416;-24
2022/12/11 07:46:29;;;;;;;;;;;;;;;27.31;33.26;98980.47;5018003;28;1081;-25
2022/12/11 07:48:54;;;;;;;;;;;;;;;27.54;32.40;98984.34;5011827;28;946;-26
2022/12/11 07:51:23;;;;;;;;;;;;;;;27.33;33.14;98980.25;5010214;28;1965;-25
2022/12/11 07:53:49;;;;;;;;;;;;;;;27.23;32.53;98995.13;5018128;28;1080;-27
2022/12/11 07:56:14;;;;;;;;;;;;;;;27.36;33.09;98977.13;5013801;28;2386;-24
2022/12/11 07:58:40;;;;;;;;;;;;;;;27.41;33.17;98974.53;5013861;28;1216;-28
2022/12/11 08:01:05;;;;;;;;;;;;;;;27.46;32.61;98966.56;5017405;28;1148;-26
2022/12/11 08:03:30;;;;;;;;;;;;;;;27.58;32.51;98963.91;5003765;28;1143;-27
2022/12/11 08:05:56;;;;;;;;;;;;;;;27.55;32.01;98958.16;5017331;28;1171;-28
2022/12/11 08:08:21;;;;;;;;;;;;;;;27.49;32.42;98952.59;5017829;28;1171;-26
2022/12/11 08:10:47;;;;;;;;;;;;;;;27.70;32.01;98958.59;5017688;28;1160;-25
2022/12/11 08:13:12;;;;;;;;;;;;;;;27.85;32.27;98951.91;5017236;28;1906;-27
2022/12/11 08:15:37;;;;;;;;;;;;;;;27.86;31.85;98957.09;5003769;28;1175;-27
2022/12/11 08:18:02;;;;;;;;;;;;;;;27.73;30.90;98954.59;5016968;28;1140;-28
2022/12/11 08:20:29;;;;;;;;;;;;;;;27.50;30.96;98964.25;5017010;28;1128;-25
2022/12/11 08:22:54;;;;;;;;;;;;;;;27.73;32.04;98971.63;5017495;28;935;-26
2022/12/11 08:25:20;;;;;;;;;;;;;;;27.86;32.08;98967.09;5009174;28;1129;-26
2022/12/11 08:27:45;;;;;;;;;;;;;;;27.69;32.58;98926.41;5015301;28;1758;-25
2022/12/11 08:30:10;;;;;;;;;;;;;;;27.47;31.96;98916.09;5017187;28;1184;-24
2022/12/11 08:32:36;;;;;;;;;;;;;;;27.47;31.73;98881.81;5016915;28;1918;-27
2022/12/11 08:35:01;;;;;;;;;;;;;;;27.76;32.12;98856.88;5017241;28;1108;-25
2022/12/11 08:37:26;;;;;;;;;;;;;;;27.92;32.31;98865.34;5009116;28;1176;-28
2022/12/11 08:39:52;;;;;;;;;;;;;;;27.89;32.04;98866.66;5016755;28;1275;-26
2022/12/11 08:42:17;;;;;;;;;;;;;;;27.76;31.50;98859.56;5017387;28;1100;-25
2022/12/11 08:44:42;;;;;;;;;;;;;;;27.66;32.09;98860.13;5017081;28;1125;-25
2022/12/11 08:47:11;;;;;;;;;;;;;;;27.67;32.74;98864.47;5011528;28;1136;-27
2022/12/11 08:49:36;;;;;;;;;;;;;;;27.87;32.30;98866.88;5008402;28;1021;-26
2022/12/11 08:52:02;;;;;;;;;;;;;;;27.74;32.42;98859.00;5003025;28;1963;-27
2022/12/11 08:54:27;;;;;;;;;;;;;;;27.49;32.83;98878.88;5016860;28;1140;-25
2022/12/11 08:56:52;;;;;;;;;;;;;;;27.52;31.58;98891.94;5016714;28;2480;-27
2022/12/11 08:59:18;;;;;;;;;;;;;;;27.39;32.83;98892.94;5016912;28;1139;-28
2022/12/11 09:01:43;;;;;;;;;;;;;;;27.70;31.67;98882.13;5008113;28;1171;-27
2022/12/11 09:04:08;;;;;;;;;;;;;;;27.74;32.15;98883.31;5016679;28;1176;-25
2022/12/11 09:06:33;;;;;;;;;;;;;;;27.58;31.24;98882.88;5016790;28;1144;-24
2022/12/11 09:08:59;;;;;;;;;;;;;;;27.54;31.69;98876.31;5016378;28;1137;-25
2022/12/11 09:11:25;;;;;;;;;;;;;;;27.60;32.48;98867.28;5014993;28;1995;-27
2022/12/11 09:13:51;;;;;;;;;;;;;;;27.64;32.25;98851.44;5008877;28;1238;-27
2022/12/11 09:16:17;;;;;;;;;;;;;;;27.82;31.85;98861.34;5004000;28;1141;-24
2022/12/11 09:18:43;;;;;;;;;;;;;;;27.71;32.31;98860.28;5016656;28;1132;-29
2022/12/11 09:21:09;;;;;;;;;;;;;;;27.52;32.61;98856.81;5016081;28;1168;-25
2022/12/11 09:23:35;;;;;;;;;;;;;;;27.56;32.90;98855.28;5005169;28;1092;-24
2022/12/11 09:26:04;;;;;;;;;;;;;;;27.85;31.68;98849.25;5011511;28;2390;-24
2022/12/11 09:28:30;;;;;;;;;;;;;;;27.86;32.72;98857.13;5006726;28;1219;-25
2022/12/11 09:30:55;;;;;;;;;;;;;;;27.86;32.53;98850.91;5016018;28;1218;-24
2022/12/11 09:33:20;;;;;;;;;;;;;;;27.83;32.68;98854.88;5016664;28;1914;-27
2022/12/11 09:35:46;;;;;;;;;;;;;;;27.47;32.66;98852.13;5015165;28;1081;-25
2022/12/11 09:38:11;;;;;;;;;;;;;;;27.46;31.31;98850.47;5014288;28;1275;-25
2022/12/11 09:40:40;;;;;;;;;;;;;;;27.27;31.44;98849.72;5015878;28;1187;-26
2022/12/11 09:43:08;;;;;;;;;;;;;;;27.49;32.77;98843.78;5015000;28;1212;-26
2022/12/11 09:45:33;;;;;;;;;;;;;;;27.71;32.46;98845.97;5015253;28;1141;-24
2022/12/11 09:47:59;;;;;;;;;;;;;;;27.76;32.44;98851.47;5016085;28;1152;-24
2022/12/11 09:50:25;;;;;;;;;;;;;;;27.65;33.02;98852.25;5007927;28;1077;-25
2022/12/11 09:53:07;;;;;;;;;;;;;;;27.90;33.18;98843.97;5016042;28;1988;-27
2022/12/11 09:55:38;;;;;;;;;;;;;;;27.97;32.92;98851.97;5016029;28;1155;-24
2022/12/11 09:58:06;;;;;;;;;;;;;;;28.07;32.94;98848.66;5008250;28;2731;-25
2022/12/11 10:00:35;;;;;;;;;;;;;;;28.02;33.07;98840.44;5016376;28;1175;-24
2022/12/11 10:03:19;;;;;;;;;;;;;;;28.03;33.14;98837.50;5005804;28;878;-27
2022/12/11 10:05:59;;;;;;;;;;;;;;;27.82;31.67;98828.09;5014765;28;1279;-27
2022/12/11 10:08:34;;;;;;;;;;;;;;;27.65;34.10;98839.56;5015740;28;1167;-24
2022/12/11 10:11:18;;;;;;;;;;;;;;;27.84;33.42;98831.41;5014817;28;1054;-25
2022/12/11 10:13:46;;;;;;;;;;;;;;;27.56;33.70;98835.59;5015717;28;1215;-25
2022/12/11 10:16:16;;;;;;;;;;;;;;;27.52;33.12;98840.63;5015475;28;1152;-28
2022/12/11 10:18:41;;;;;;;;;;;;;;;27.60;33.60;98836.75;5014922;28;1133;-28
2022/12/11 10:21:07;;;;;;;;;;;;;;;27.53;33.27;98833.34;5014981;28;1133;-25
2022/12/11 10:23:37;;;;;;;;;;;;;;;27.81;32.32;98827.28;5018075;28;1180;-25
2022/12/11 10:26:04;;;;;;;;;;;;;;;27.66;33.67;98814.19;5015628;28;1785;-26
2022/12/11 10:28:30;;;;;;;;;;;;;;;27.40;34.78;98824.38;5010175;28;1188;-25
2022/12/11 10:31:04;;;;;;;;;;;;;;;27.54;34.53;98818.78;5019511;28;1168;-25
2022/12/11 10:33:48;;;;;;;;;;;;;;;27.45;34.96;98808.31;5019635;28;1910;-26
2022/12/11 10:36:14;;;;;;;;;;;;;;;27.32;35.24;98803.97;5019081;28;1132;-24
2022/12/11 10:38:41;;;;;;;;;;;;;;;27.43;34.85;98801.50;5017584;28;966;-25
2022/12/11 10:41:13;;;;;;;;;;;;;;;27.46;35.06;98799.16;5018066;28;1188;-26
2022/12/11 10:43:42;;;;;;;;;;;;;;;27.53;35.19;98807.16;5019641;28;1164;-25
2022/12/11 10:46:21;;;;;;;;;;;;;;;27.60;34.92;98797.06;5018880;28;1223;-26
2022/12/11 10:48:58;;;;;;;;;;;;;;;27.41;35.63;98801.72;5019441;28;1246;-25
2022/12/11 10:51:33;;;;;;;;;;;;;;;27.41;34.88;98800.91;5019080;28;1969;-23
2022/12/11 10:54:15;;;;;;;;;;;;;;;27.37;34.26;98804.09;5019410;28;1140;-25
2022/12/11 10:56:40;;;;;;;;;;;;;;;27.55;33.41;98798.81;5009968;28;1903;-24
2022/12/11 10:59:06;;;;;;;;;;;;;;;27.67;33.31;98798.81;5017380;28;1370;-24
2022/12/11 11:01:31;;;;;;;;;;;;;;;27.35;33.92;98817.00;5018811;28;1108;-25
2022/12/11 11:04:00;;;;;;;;;;;;;;;27.31;34.45;98812.28;5018428;28;970;-25
2022/12/11 11:06:25;;;;;;;;;;;;;;;27.63;33.76;98814.66;5018858;28;1155;-24
2022/12/11 11:08:51;;;;;;;;;;;;;;;27.78;34.29;98802.63;5019066;28;1187;-25
2022/12/11 11:11:33;;;;;;;;;;;;;;;27.87;33.90;98809.31;5017587;28;1898;-26
2022/12/11 11:14:05;;;;;;;;;;;;;;;27.68;34.08;98806.72;5016025;28;1239;-23
2022/12/11 11:16:30;;;;;;;;;;;;;;;27.45;34.21;98808.31;5007710;28;1225;-26
2022/12/11 11:18:55;;;;;;;;;;;;;;;27.49;34.44;98814.09;5018856;28;1089;-25
2022/12/11 11:21:22;;;;;;;;;;;;;;;27.49;34.00;98820.28;5017452;28;1256;-24
2022/12/11 11:23:47;;;;;;;;;;;;;;;27.44;33.93;98819.34;5018068;28;1190;-25
2022/12/11 11:26:13;;;;;;;;;;;;;;;27.33;34.10;98818.25;5016230;28;1782;-23
2022/12/11 11:28:40;;;;;;;;;;;;;;;27.24;34.07;98825.88;5018299;28;1183;-23
2022/12/11 11:31:06;;;;;;;;;;;;;;;27.19;33.71;98831.97;5016963;28;1179;-25
2022/12/11 11:33:33;;;;;;;;;;;;;;;27.25;33.75;98831.06;5016365;28;1219;-25
2022/12/11 11:36:00;;;;;;;;;;;;;;;27.59;31.71;98835.91;5018523;28;1136;-28
2022/12/11 11:38:30;;;;;;;;;;;;;;;27.53;32.27;98841.44;5017668;28;1144;-25
2022/12/11 11:41:14;;;;;;;;;;;;;;;27.72;32.82;98847.59;5017946;28;1092;-25
2022/12/11 11:43:46;;;;;;;;;;;;;;;27.64;32.88;98846.03;5017088;28;1097;-24
2022/12/11 11:46:28;;;;;;;;;;;;;;;27.50;33.13;98840.84;5016622;28;1459;-24
2022/12/11 11:48:56;;;;;;;;;;;;;;;27.69;32.96;98842.66;5003081;28;1133;-25
2022/12/11 11:51:23;;;;;;;;;;;;;;;27.71;33.19;98837.88;5017458;28;1980;-28
2022/12/11 11:53:49;;;;;;;;;;;;;;;27.69;33.34;98839.97;5015717;28;1195;-23
2022/12/11 11:56:22;;;;;;;;;;;;;;;27.42;33.51;98827.69;5012614;28;2345;-26
2022/12/11 11:58:50;;;;;;;;;;;;;;;27.14;33.77;98832.66;5008835;28;1145;-26
2022/12/11 12:01:16;;;;;;;;;;;;;;;27.30;33.40;98813.31;5017405;28;1185;-26
2022/12/11 12:03:42;;;;;;;;;;;;;;;27.57;31.34;98810.22;5016379;28;958;-25
2022/12/11 12:06:16;;;;;;;;;;;;;;;27.43;33.31;98802.31;5017575;28;1084;-28
2022/12/11 12:08:42;;;;;;;;;;;;;;;27.77;33.27;98803.66;5017290;28;1151;-24
2022/12/11 12:11:26;;;;;;;;;;;;;;;27.74;33.35;98800.38;5017352;28;1112;-26
2022/12/11 12:14:00;;;;;;;;;;;;;;;27.59;33.35;98803.50;5017255;28;1449;-27
2022/12/11 12:16:25;;;;;;;;;;;;;;;27.58;33.63;98804.56;5016978;28;1117;-26
2022/12/11 12:18:50;;;;;;;;;;;;;;;27.90;33.34;98808.00;5017540;28;1148;-28
2022/12/11 12:21:18;;;;;;;;;;;;;;;27.89;33.36;98818.00;5017071;28;1511;-26
2022/12/11 12:23:49;;;;;;;;;;;;;;;27.83;33.79;98811.66;5017850;28;1088;-26
2022/12/11 12:26:15;;;;;;;;;;;;;;;27.81;33.90;98804.84;5016198;28;2270;-27
2022/12/11 12:28:43;;;;;;;;;;;;;;;27.62;34.04;98789.56;5016949;28;1077;-25
2022/12/11 12:31:13;;;;;;;;;;;;;;;27.71;31.28;98791.94;5017298;28;1104;-24
2022/12/11 12:33:42;;;;;;;;;;;;;;;27.76;34.51;98794.72;5015980;28;1191;-25
2022/12/11 12:36:11;;;;;;;;;;;;;;;27.64;34.58;98800.13;5015764;28;1124;-25
2022/12/11 12:38:42;;;;;;;;;;;;;;;27.57;34.72;98796.69;5016562;28;1109;-26
2022/12/11 12:41:13;;;;;;;;;;;;;;;27.76;33.51;98797.44;5016817;28;1081;-25
2022/12/11 12:43:53;;;;;;;;;;;;;;;27.81;33.26;98808.34;5015979;28;1152;-27
2022/12/11 12:46:37;;;;;;;;;;;;;;;27.82;32.99;98792.97;5016196;28;1160;-25
2022/12/11 12:49:02;;;;;;;;;;;;;;;27.69;34.44;98797.56;5004749;28;1066;-25
2022/12/11 12:51:28;;;;;;;;;;;;;;;28.08;33.92;98796.25;5015261;28;1965;-25
2022/12/11 12:53:58;;;;;;;;;;;;;;;27.91;33.92;98790.75;5016439;28;1136;-27
2022/12/11 12:56:23;;;;;;;;;;;;;;;27.91;33.01;98782.66;5015232;28;2586;-24
2022/12/11 12:58:49;;;;;;;;;;;;;;;27.96;33.75;98785.47;5015654;28;1220;-25
2022/12/11 13:01:16;;;;;;;;;;;;;;;27.84;33.43;98788.97;5015324;28;1164;-25
2022/12/11 13:04:01;;;;;;;;;;;;;;;27.87;34.12;98796.63;5016346;28;1227;-24
2022/12/11 13:06:30;;;;;;;;;;;;;;;27.83;33.69;98800.84;5015592;28;1172;-27
2022/12/11 13:08:56;;;;;;;;;;;;;;;27.90;34.10;98798.03;5016703;28;1196;-24
2022/12/11 13:11:29;;;;;;;;;;;;;;;27.79;31.66;98786.19;5015666;28;1894;-26